Time;durP1;ratioP1;P1;durP2;ratioP2;P2;SDS_P1;SDS_P2;PMS_P1;PMS_P2;Temp;Humidity;BMP_temperature;BMP_pressure;BME280_temperature;BME280_humidity;BME280_pressure;Samples;Min_cycle;Max_cycle;Signal;HPM_P1;HPM_P2
2022/04/17 00:01:37;;;;;;;8.90;6.15;;;6.30;99.90;;;;;;5036307;28;20089;-85
2022/04/17 00:04:03;;;;;;;6.53;5.82;;;7.40;99.90;;;;;;5037005;28;20054;-87
2022/04/17 00:06:28;;;;;;;7.35;5.45;;;6.50;99.90;;;;;;5018260;28;20080;-90
2022/04/17 00:08:54;;;;;;;7.55;5.55;;;6.60;99.90;;;;;;5032394;28;20050;-88
2022/04/17 00:11:20;;;;;;;7.50;6.03;;;6.70;99.90;;;;;;5009412;28;20046;-89
2022/04/17 00:13:48;;;;;;;7.85;5.60;;;7.30;99.90;;;;;;5020375;28;20054;-87
2022/04/17 00:16:13;;;;;;;7.93;6.10;;;6.90;99.90;;;;;;5017081;28;20050;-91
2022/04/17 00:18:39;;;;;;;8.88;6.30;;;7.00;99.90;;;;;;4983514;28;20057;-88
2022/04/17 00:21:05;;;;;;;8.30;5.85;;;7.10;99.90;;;;;;4998751;28;20045;-89
2022/04/17 00:23:32;;;;;;;8.15;6.20;;;7.70;99.90;;;;;;4966758;28;20054;-91
2022/04/17 00:25:58;;;;;;;8.57;6.03;;;7.00;99.90;;;;;;5016457;28;20054;-91
2022/04/17 00:28:24;;;;;;;8.52;6.03;;;7.00;99.90;;;;;;5014744;28;20576;-90
2022/04/17 00:30:50;;;;;;;8.45;6.15;;;7.00;99.90;;;;;;5014983;28;20061;-88
2022/04/17 00:33:15;;;;;;;8.77;6.47;;;6.90;99.90;;;;;;4998103;28;20046;-90
2022/04/17 00:35:43;;;;;;;7.45;6.18;;;6.90;99.90;;;;;;4998205;28;20452;-88
2022/04/17 00:38:08;;;;;;;8.80;6.53;;;6.80;99.90;;;;;;5013654;28;20482;-90
2022/04/17 00:40:34;;;;;;;7.53;6.25;;;6.80;99.90;;;;;;4997128;28;20141;-88
2022/04/17 00:43:00;;;;;;;7.82;6.22;;;6.80;99.90;;;;;;4996629;28;20053;-86
2022/04/17 00:45:26;;;;;;;7.75;6.15;;;6.70;99.90;;;;;;4997327;28;20100;-88
2022/04/17 00:47:51;;;;;;;9.23;6.18;;;6.60;99.90;;;;;;4998637;28;20042;-87
2022/04/17 00:50:18;;;;;;;11.02;6.63;;;6.50;99.90;;;;;;5030619;28;20137;-84
2022/04/17 00:55:19;;;;;;;10.38;6.50;;;6.50;99.90;;;;;;5135508;23;20045;-84
2022/04/17 00:57:48;;;;;;;9.98;7.05;;;6.50;99.90;;;;;;5007846;28;20037;-83
2022/04/17 01:00:14;;;;;;;10.80;7.55;;;6.40;99.90;;;;;;4991146;28;20066;-87
2022/04/17 01:02:43;;;;;;;9.30;6.68;;;6.50;99.90;;;;;;4991966;28;20186;-88
2022/04/17 01:05:08;;;;;;;7.55;6.50;;;7.60;99.90;;;;;;4984390;28;20555;-91
2022/04/17 01:07:34;;;;;;;8.60;6.72;;;6.40;99.90;;;;;;5016229;28;20140;-89
2022/04/17 01:10:00;;;;;;;11.25;6.97;;;6.30;99.90;;;;;;4983740;28;20127;-87
2022/04/17 01:12:25;;;;;;;9.77;7.25;;;6.20;99.90;;;;;;4999430;28;20050;-88
2022/04/17 01:14:51;;;;;;;10.18;7.18;;;6.10;99.90;;;;;;4983595;28;20043;-90
2022/04/17 01:17:17;;;;;;;9.20;6.88;;;6.10;99.90;;;;;;4993814;28;20033;-89
2022/04/17 01:19:42;;;;;;;8.63;6.93;;;6.00;99.90;;;;;;5032433;28;20045;-90
2022/04/17 01:22:11;;;;;;;11.15;7.65;;;5.90;99.90;;;;;;5008523;28;20116;-89
2022/04/17 01:27:21;;;;;;;8.75;7.05;;;5.90;99.90;;;;;;4988838;28;20053;-89
2022/04/17 01:29:47;;;;;;;9.88;7.55;;;5.80;99.90;;;;;;5037158;28;20091;-88
2022/04/17 01:32:13;;;;;;;10.93;7.88;;;5.80;99.90;;;;;;5017177;28;20049;-89
2022/04/17 01:34:39;;;;;;;12.27;7.90;;;6.50;99.90;;;;;;5000836;28;20056;-89
2022/04/17 01:37:05;;;;;;;12.50;7.57;;;5.60;99.90;;;;;;5037499;28;20026;-85
2022/04/17 01:39:31;;;;;;;12.43;8.10;;;6.20;99.90;;;;;;5005338;28;20605;-89
2022/04/17 01:41:57;;;;;;;9.93;7.22;;;5.80;99.90;;;;;;4983450;28;20049;-89
2022/04/17 01:44:24;;;;;;;9.15;7.93;;;6.20;99.90;;;;;;5015075;28;20045;-87
2022/04/17 01:46:49;;;;;;;10.80;7.80;;;5.50;99.90;;;;;;4999498;28;20131;-89
2022/04/17 01:49:15;;;;;;;11.07;7.68;;;5.40;99.90;;;;;;4999280;28;20140;-90
2022/04/17 01:51:41;;;;;;;12.05;7.82;;;5.40;99.90;;;;;;5015299;28;20052;-90
2022/04/17 01:54:11;;;;;;;11.05;8.32;;;4.50;99.90;;;;;;5014540;28;20061;-88
2022/04/17 01:56:38;;;;;;;11.18;7.63;;;5.30;99.90;;;;;;5017590;28;20144;-89
2022/04/17 01:59:05;;;;;;;9.63;7.63;;;5.90;99.90;;;;;;5006680;28;20048;-87
2022/04/17 02:01:33;;;;;;;8.52;7.20;;;5.20;99.90;;;;;;4989725;28;20113;-83
2022/04/17 02:04:05;;;;;;;10.73;7.75;;;5.20;99.90;;;;;;5007519;28;20060;-85
2022/04/17 02:06:31;;;;;;;12.45;8.30;;;6.60;99.90;;;;;;5000759;28;20131;-89
2022/04/17 02:08:56;;;;;;;12.27;7.93;;;5.10;99.90;;;;;;5017591;28;20067;-90
2022/04/17 02:11:24;;;;;;;10.40;7.75;;;5.00;99.90;;;;;;5003750;28;20060;-90
2022/04/17 02:13:50;;;;;;;11.43;8.10;;;5.10;99.90;;;;;;5000240;28;20156;-90
2022/04/17 02:16:17;;;;;;;14.18;8.70;;;5.70;99.90;;;;;;5000023;28;20053;-91
2022/04/17 02:18:48;;;;;;;10.40;8.18;;;5.20;99.90;;;;;;5016097;28;20060;-90
2022/04/17 02:21:14;;;;;;;12.60;8.68;;;5.10;99.90;;;;;;5016645;28;20405;-90
2022/04/17 02:23:43;;;;;;;11.65;8.57;;;5.40;99.90;;;;;;5019959;28;20045;-88
2022/04/17 02:26:09;;;;;;;12.93;8.48;;;5.50;99.90;;;;;;5017874;28;20552;-90
2022/04/17 02:28:39;;;;;;;12.70;8.70;;;4.90;99.90;;;;;;4983132;28;20057;-89
2022/04/17 02:31:05;;;;;;;11.57;8.15;;;4.90;99.90;;;;;;4983753;28;20056;-89
2022/04/17 02:33:31;;;;;;;12.88;8.93;;;5.70;99.90;;;;;;4998867;28;20486;-89
2022/04/17 02:35:57;;;;;;;10.63;8.60;;;4.70;99.90;;;;;;5015537;28;20052;-88
2022/04/17 02:38:23;;;;;;;11.70;8.85;;;4.70;99.90;;;;;;4989550;28;20052;-86
2022/04/17 02:40:49;;;;;;;10.98;8.70;;;4.70;99.90;;;;;;4993412;28;20080;-89
2022/04/17 02:43:14;;;;;;;12.57;8.20;;;4.70;99.90;;;;;;5009756;28;20056;-89
2022/04/17 02:45:40;;;;;;;12.20;9.07;;;4.80;99.90;;;;;;5026493;28;20145;-90
2022/04/17 02:48:06;;;;;;;14.98;9.20;;;4.50;99.90;;;;;;4998563;28;20140;-90
2022/04/17 02:50:32;;;;;;;12.23;9.15;;;4.50;99.90;;;;;;4998646;28;20121;-89
2022/04/17 02:52:58;;;;;;;11.65;8.15;;;4.50;99.90;;;;;;4998931;28;20076;-91
2022/04/17 02:55:23;;;;;;;14.77;9.88;;;4.50;99.90;;;;;;5014816;28;20432;-88
2022/04/17 02:57:49;;;;;;;11.82;9.20;;;4.40;99.90;;;;;;4997952;28;20060;-92
2022/04/17 03:00:15;;;;;;;12.77;8.45;;;4.30;99.90;;;;;;4997611;28;20072;-90
2022/04/17 03:05:38;;;;;;;14.85;9.85;;;4.30;99.90;;;;;;4988233;28;20053;-90
2022/04/17 03:08:11;;;;;;;13.95;10.13;;;4.10;99.90;;;;;;5018693;28;20485;-89
2022/04/17 03:10:38;;;;;;;12.60;9.00;;;4.00;99.90;;;;;;5003311;28;20057;-89
2022/04/17 03:13:07;;;;;;;12.38;8.85;;;4.00;99.90;;;;;;4994404;28;20060;-84
2022/04/17 03:15:37;;;;;;;14.38;9.85;;;4.00;99.90;;;;;;5038663;28;20525;-90
2022/04/17 03:18:06;;;;;;;11.68;9.25;;;4.60;99.90;;;;;;4997021;28;20046;-84
2022/04/17 03:20:32;;;;;;;13.05;9.80;;;3.80;99.90;;;;;;5006356;28;20037;-84
2022/04/17 03:22:58;;;;;;;13.05;10.25;;;3.70;99.90;;;;;;5011789;28;20025;-86
2022/04/17 03:25:23;;;;;;;14.05;9.07;;;3.70;99.90;;;;;;5024739;28;20041;-85
2022/04/17 03:27:49;;;;;;;12.52;9.30;;;4.80;99.90;;;;;;5024841;28;20022;-84
2022/04/17 03:30:16;;;;;;;11.75;9.93;;;4.20;99.90;;;;;;5024869;28;20041;-87
2022/04/17 03:32:47;;;;;;;15.90;10.48;;;3.50;99.90;;;;;;5023595;28;20035;-83
2022/04/17 03:35:13;;;;;;;15.20;9.98;;;4.40;99.90;;;;;;5023661;28;20060;-83
2022/04/17 03:37:42;;;;;;;14.32;10.52;;;3.40;99.90;;;;;;5020445;28;20037;-87
2022/04/17 03:40:08;;;;;;;15.68;10.50;;;4.70;99.90;;;;;;5020009;28;20482;-90
2022/04/17 03:42:35;;;;;;;16.02;10.48;;;3.30;99.90;;;;;;5009524;28;20515;-87
2022/04/17 03:45:02;;;;;;;13.05;10.80;;;3.20;99.90;;;;;;5021286;28;20045;-88
2022/04/17 03:47:28;;;;;;;15.00;10.90;;;3.20;99.90;;;;;;5020259;28;20072;-90
2022/04/17 03:49:54;;;;;;;15.75;10.98;;;3.20;99.90;;;;;;4986534;28;20060;-88
2022/04/17 03:52:19;;;;;;;15.20;10.70;;;3.10;99.90;;;;;;5019122;28;20042;-91
2022/04/17 03:54:46;;;;;;;14.55;10.07;;;3.00;99.90;;;;;;5018812;28;20057;-90
2022/04/17 03:57:11;;;;;;;14.13;10.13;;;3.00;99.90;;;;;;5019161;28;20065;-87
2022/04/17 03:59:37;;;;;;;12.10;10.27;;;3.40;99.90;;;;;;4985846;28;20466;-90
2022/04/17 04:02:03;;;;;;;16.48;11.10;;;2.90;99.90;;;;;;5001904;28;20068;-90
2022/04/17 04:04:29;;;;;;;14.65;10.18;;;2.90;99.90;;;;;;5019503;28;20061;-88
2022/04/17 04:06:55;;;;;;;15.95;11.10;;;3.10;99.90;;;;;;5002172;28;20512;-90
2022/04/17 04:09:20;;;;;;;13.88;10.48;;;2.80;99.90;;;;;;5018461;28;20056;-91
2022/04/17 04:11:47;;;;;;;14.32;10.38;;;4.00;99.90;;;;;;5002982;28;20052;-91
2022/04/17 04:14:12;;;;;;;14.18;10.20;;;3.50;99.90;;;;;;5002904;28;20053;-89
2022/04/17 04:16:39;;;;;;;16.75;10.77;;;2.80;99.90;;;;;;5018500;28;20080;-86
2022/04/17 04:19:05;;;;;;;15.07;10.70;;;3.10;99.90;;;;;;5002604;28;20054;-92
2022/04/17 04:21:31;;;;;;;16.27;10.82;;;3.70;99.90;;;;;;5002220;28;20053;-89
2022/04/17 04:23:57;;;;;;;13.35;10.43;;;2.70;99.90;;;;;;4985990;28;20386;-90
2022/04/17 04:26:22;;;;;;;14.80;10.90;;;3.20;99.90;;;;;;5002920;28;20046;-90
2022/04/17 04:28:48;;;;;;;16.95;11.27;;;3.80;99.90;;;;;;4993263;28;20050;-86
2022/04/17 04:31:15;;;;;;;14.00;10.82;;;3.20;99.90;;;;;;5056451;28;20073;-83
2022/04/17 04:33:42;;;;;;;17.17;11.00;;;2.60;99.90;;;;;;5017168;28;20057;-85
2022/04/17 04:36:11;;;;;;;13.43;10.45;;;2.90;99.90;;;;;;5026727;28;20045;-91
2022/04/17 04:38:36;;;;;;;14.15;10.52;;;2.60;99.90;;;;;;5035282;28;20129;-91
2022/04/17 04:41:02;;;;;;;15.55;11.35;;;4.50;99.90;;;;;;5000354;28;20045;-91
2022/04/17 04:43:28;;;;;;;14.57;10.85;;;3.40;99.90;;;;;;4985571;28;20055;-91
2022/04/17 04:46:06;;;;;;;13.07;10.05;;;2.70;99.90;;;;;;5006659;28;20344;-90
2022/04/17 04:51:21;;;;;;;13.82;10.75;;;3.80;99.90;;;;;;5008082;28;20053;-85
2022/04/17 04:53:47;;;;;;;12.70;10.82;;;2.70;99.90;;;;;;5035565;28;20065;-85
2022/04/17 04:56:13;;;;;;;14.68;10.90;;;3.00;99.90;;;;;;4966632;28;20050;-88
2022/04/17 04:58:39;;;;;;;13.57;10.60;;;3.30;99.90;;;;;;5001744;28;20573;-89
2022/04/17 05:01:04;;;;;;;13.73;10.48;;;3.50;99.90;;;;;;5022596;28;20096;-86
2022/04/17 05:03:30;;;;;;;12.40;10.43;;;4.30;99.90;;;;;;5016349;28;20037;-87
2022/04/17 05:05:56;;;;;;;15.13;10.23;;;4.80;99.90;;;;;;5027249;28;20114;-89
2022/04/17 05:08:21;;;;;;;13.30;9.25;;;5.30;99.90;;;;;;5022295;28;20042;-89
2022/04/17 05:10:47;;;;;;;13.60;9.63;;;5.80;99.90;;;;;;5014937;28;20034;-87
2022/04/17 05:13:13;;;;;;;13.95;10.02;;;5.60;99.90;;;;;;5005968;28;20054;-88
2022/04/17 05:15:39;;;;;;;12.65;10.10;;;5.30;99.90;;;;;;4999207;28;20450;-88
2022/04/17 05:18:05;;;;;;;13.07;10.05;;;5.20;99.90;;;;;;4997459;28;20618;-89
2022/04/17 05:20:33;;;;;;;12.32;9.63;;;5.70;99.90;;;;;;4980522;28;20132;-87
2022/04/17 05:23:18;;;;;;;11.68;9.35;;;6.40;99.90;;;;;;4998217;28;20054;-89
2022/04/17 05:25:49;;;;;;;13.60;10.15;;;7.30;99.90;;;;;;4968473;28;20042;-86
2022/04/17 05:28:15;;;;;;;13.45;10.23;;;8.00;99.90;;;;;;4996685;28;20126;-87
2022/04/17 05:30:41;;;;;;;12.55;9.90;;;8.60;99.90;;;;;;4997189;28;20077;-88
2022/04/17 05:33:07;;;;;;;11.88;9.10;;;9.20;99.90;;;;;;5012833;28;20049;-85
2022/04/17 05:35:33;;;;;;;13.18;9.48;;;9.60;99.90;;;;;;5013820;28;20050;-88
2022/04/17 05:37:59;;;;;;;10.93;9.38;;;9.90;99.90;;;;;;4997225;28;20132;-89
2022/04/17 05:40:24;;;;;;;12.95;9.75;;;10.70;99.90;;;;;;5014744;28;20048;-86
2022/04/17 05:42:50;;;;;;;12.00;10.32;;;11.00;99.90;;;;;;4997749;28;20438;-91
2022/04/17 05:45:16;;;;;;;14.77;9.52;;;11.30;99.90;;;;;;4995608;28;20129;-90
2022/04/17 05:47:41;;;;;;;12.52;9.82;;;11.70;99.90;;;;;;5007667;28;20060;-86
2022/04/17 05:50:07;;;;;;;11.90;10.02;;;11.80;99.90;;;;;;5007285;28;20222;-87
2022/04/17 05:52:33;;;;;;;11.52;9.57;;;12.00;99.90;;;;;;4995359;28;20512;-88
2022/04/17 05:54:59;;;;;;;10.77;9.65;;;12.40;99.90;;;;;;5011507;28;20141;-89
2022/04/17 05:57:24;;;;;;;13.27;9.90;;;12.50;99.90;;;;;;5027296;28;20042;-88
2022/04/17 05:59:50;;;;;;;13.55;10.43;;;12.10;99.90;;;;;;5013336;28;20061;-84
2022/04/17 06:02:16;;;;;;;13.32;10.90;;;12.60;99.90;;;;;;5021711;28;20046;-89
2022/04/17 06:04:42;;;;;;;13.02;10.40;;;13.50;99.90;;;;;;4997088;28;20455;-88
2022/04/17 06:07:08;;;;;;;12.48;10.13;;;14.10;99.90;;;;;;4995799;28;20401;-87
2022/04/17 06:09:34;;;;;;;12.60;10.77;;;14.10;99.90;;;;;;4995709;28;20149;-86
2022/04/17 06:12:00;;;;;;;11.93;10.27;;;14.30;97.20;;;;;;4994587;28;20096;-87
2022/04/17 06:14:26;;;;;;;12.50;10.38;;;13.20;99.90;;;;;;5010702;28;20082;-84
2022/04/17 06:16:51;;;;;;;12.57;10.45;;;13.10;99.90;;;;;;4978520;28;20467;-86
2022/04/17 06:19:17;;;;;;;15.10;10.95;;;13.30;99.90;;;;;;4994853;28;20521;-86
2022/04/17 06:21:43;;;;;;;13.98;11.13;;;14.10;98.00;;;;;;5010679;28;20053;-82
2022/04/17 06:24:08;;;;;;;12.35;10.85;;;13.90;97.90;;;;;;5011216;28;20441;-84
2022/04/17 06:26:34;;;;;;;11.25;10.02;;;14.00;99.20;;;;;;5009997;28;20045;-83
2022/04/17 06:29:03;;;;;;;12.68;10.70;;;14.70;97.30;;;;;;4993648;28;20054;-82
2022/04/17 06:31:31;;;;;;;13.27;11.13;;;14.00;98.40;;;;;;5010306;28;20056;-84
2022/04/17 06:33:57;;;;;;;12.15;10.73;;;14.40;98.40;;;;;;5009765;28;20048;-83
2022/04/17 06:36:23;;;;;;;14.15;10.45;;;14.70;98.40;;;;;;5011569;28;20523;-84
2022/04/17 06:38:48;;;;;;;13.30;11.60;;;15.00;97.80;;;;;;4976571;28;20042;-83
2022/04/17 06:41:14;;;;;;;11.85;10.50;;;14.80;96.80;;;;;;4992711;28;20069;-84
2022/04/17 06:43:40;;;;;;;11.85;10.65;;;15.10;97.00;;;;;;5010356;28;20117;-84
2022/04/17 06:46:05;;;;;;;12.55;11.15;;;15.30;95.60;;;;;;5012043;28;20505;-83
2022/04/17 06:48:31;;;;;;;13.65;10.85;;;16.00;94.10;;;;;;5000797;28;20050;-83
2022/04/17 06:50:57;;;;;;;13.50;10.85;;;16.10;92.70;;;;;;5005587;28;20050;-81
2022/04/17 06:53:22;;;;;;;11.80;10.32;;;15.60;92.70;;;;;;4987907;28;20057;-80
2022/04/17 06:55:48;;;;;;;12.32;10.77;;;15.30;93.90;;;;;;4989683;28;20068;-82
2022/04/17 06:58:18;;;;;;;12.30;10.77;;;16.70;92.40;;;;;;4988145;28;20053;-82
2022/04/17 07:00:43;;;;;;;12.43;10.70;;;16.40;93.60;;;;;;5016101;28;20072;-81
2022/04/17 07:03:09;;;;;;;13.05;11.20;;;16.50;90.60;;;;;;5017368;28;20053;-83
2022/04/17 07:05:35;;;;;;;12.25;10.48;;;16.50;92.10;;;;;;5015345;28;20547;-85
2022/04/17 07:08:04;;;;;;;12.48;10.40;;;16.60;91.70;;;;;;5031628;28;20088;-85
2022/04/17 07:10:31;;;;;;;12.35;10.98;;;16.20;91.50;;;;;;5031472;28;20410;-84
2022/04/17 07:12:57;;;;;;;11.68;10.25;;;17.20;90.90;;;;;;5013111;28;20061;-83
2022/04/17 07:15:26;;;;;;;11.57;10.38;;;17.20;90.30;;;;;;4964021;28;20042;-84
2022/04/17 07:17:52;;;;;;;11.52;10.13;;;17.20;90.50;;;;;;5013629;28;20061;-83
2022/04/17 07:20:18;;;;;;;13.35;11.13;;;17.50;88.80;;;;;;4983061;28;20057;-86
2022/04/17 07:22:44;;;;;;;12.13;10.80;;;17.50;90.40;;;;;;5015290;28;20045;-85
2022/04/17 07:25:11;;;;;;;12.45;10.35;;;17.40;89.10;;;;;;5031145;28;20053;-84
2022/04/17 07:27:45;;;;;;;10.95;9.80;;;17.40;89.10;;;;;;5013964;28;20123;-86
2022/04/17 07:30:13;;;;;;;12.20;10.15;;;17.50;88.10;;;;;;4965432;28;20054;-87
2022/04/17 07:32:43;;;;;;;10.60;9.50;;;18.10;84.20;;;;;;5013492;28;20049;-86
2022/04/17 07:35:09;;;;;;;14.02;10.30;;;17.50;86.30;;;;;;5030768;28;20481;-83
2022/04/17 07:37:36;;;;;;;12.10;10.20;;;17.50;86.90;;;;;;4996894;28;20054;-82
2022/04/17 07:40:19;;;;;;;13.52;10.60;;;17.80;84.70;;;;;;4997795;28;20456;-85
2022/04/17 07:42:45;;;;;;;13.35;10.57;;;17.80;87.20;;;;;;5030912;28;20056;-84
2022/04/17 07:45:11;;;;;;;10.77;9.68;;;17.10;87.20;;;;;;5030575;28;20121;-85
2022/04/17 07:47:37;;;;;;;10.57;9.40;;;17.90;84.70;;;;;;4996870;28;20057;-86
2022/04/17 07:50:03;;;;;;;10.23;9.13;;;17.30;88.00;;;;;;5013132;28;20056;-86
2022/04/17 07:52:29;;;;;;;9.98;8.82;;;17.70;84.60;;;;;;5000050;28;20053;-87
2022/04/17 07:54:54;;;;;;;12.57;9.55;;;17.50;85.80;;;;;;5016188;28;20060;-85
2022/04/17 07:57:20;;;;;;;11.75;9.48;;;17.50;87.50;;;;;;5016760;28;20061;-83
2022/04/17 07:59:48;;;;;;;10.73;9.60;;;17.90;85.50;;;;;;5034793;28;20460;-85
2022/04/17 08:02:22;;;;;;;11.95;8.82;;;18.80;81.40;;;;;;5016621;28;20049;-85
2022/04/17 08:04:51;;;;;;;13.25;9.82;;;18.50;83.70;;;;;;5019815;28;20088;-86
2022/04/17 08:07:18;;;;;;;9.52;8.40;;;18.20;81.90;;;;;;5019039;28;20107;-83
2022/04/17 08:09:45;;;;;;;9.27;8.38;;;18.20;83.10;;;;;;5018401;28;20044;-83
2022/04/17 08:12:12;;;;;;;9.43;7.90;;;18.60;83.20;;;;;;4985030;28;20049;-85
2022/04/17 08:14:38;;;;;;;9.85;8.85;;;18.20;82.30;;;;;;5037138;28;20037;-85
2022/04/17 08:17:04;;;;;;;10.00;9.00;;;18.90;80.90;;;;;;5046825;28;20043;-80
2022/04/17 08:19:31;;;;;;;9.52;8.60;;;19.50;79.30;;;;;;5029900;28;20045;-83
2022/04/17 08:22:00;;;;;;;10.02;8.32;;;18.60;81.20;;;;;;5039429;28;20057;-86
2022/04/17 08:24:26;;;;;;;10.23;8.13;;;19.10;80.00;;;;;;5017527;28;20404;-83
2022/04/17 08:26:52;;;;;;;10.70;8.43;;;19.50;76.00;;;;;;5016665;28;20034;-83
2022/04/17 08:29:19;;;;;;;9.98;8.57;;;19.20;79.00;;;;;;5000045;28;20092;-87
2022/04/17 08:31:45;;;;;;;8.48;7.40;;;19.30;78.00;;;;;;5034477;28;20510;-87
2022/04/17 08:34:10;;;;;;;9.02;8.13;;;19.30;78.40;;;;;;5001081;28;20052;-86
2022/04/17 08:36:36;;;;;;;8.93;7.85;;;19.50;76.60;;;;;;5017548;28;20041;-87
2022/04/17 08:39:02;;;;;;;9.73;7.88;;;20.00;75.70;;;;;;5033818;28;20048;-85
2022/04/17 08:41:27;;;;;;;9.45;7.80;;;19.90;76.10;;;;;;4999077;28;20057;-87
2022/04/17 08:43:54;;;;;;;9.50;7.90;;;19.40;78.10;;;;;;5016281;28;20313;-87
2022/04/17 08:46:19;;;;;;;9.45;8.05;;;20.20;75.50;;;;;;5015621;28;20103;-88
2022/04/17 08:48:45;;;;;;;11.25;7.68;;;19.80;76.30;;;;;;5000541;28;20057;-86
2022/04/17 08:51:11;;;;;;;8.88;7.55;;;20.40;74.80;;;;;;5015410;28;20091;-86
2022/04/17 08:53:36;;;;;;;8.63;7.72;;;20.10;75.70;;;;;;4999608;28;20095;-86
2022/04/17 08:56:03;;;;;;;7.93;7.15;;;20.20;74.20;;;;;;5033251;28;20490;-87
2022/04/17 08:58:28;;;;;;;9.05;7.00;;;20.00;74.20;;;;;;5015876;28;20389;-87
2022/04/17 09:00:54;;;;;;;8.45;7.20;;;20.60;74.10;;;;;;5000038;28;20049;-86
2022/04/17 09:03:20;;;;;;;8.07;7.22;;;20.90;72.50;;;;;;5032118;28;20057;-87
2022/04/17 09:05:47;;;;;;;10.38;7.85;;;20.40;71.40;;;;;;4999966;28;20073;-86
2022/04/17 09:08:17;;;;;;;11.43;7.60;;;20.30;72.80;;;;;;4999848;28;20049;-86
2022/04/17 09:10:52;;;;;;;8.25;7.45;;;20.00;72.50;;;;;;4999317;28;20394;-86
2022/04/17 09:13:29;;;;;;;8.30;7.30;;;21.00;72.30;;;;;;4999748;28;20049;-87
2022/04/17 09:15:55;;;;;;;8.43;7.47;;;20.70;73.60;;;;;;5000876;28;20045;-86
2022/04/17 09:18:20;;;;;;;10.68;7.82;;;20.50;71.80;;;;;;4999150;28;20076;-86
2022/04/17 09:20:46;;;;;;;8.23;6.75;;;20.10;73.60;;;;;;5033043;28;20049;-86
2022/04/17 09:23:12;;;;;;;7.65;6.65;;;20.90;72.60;;;;;;5014463;28;20136;-85
2022/04/17 09:25:38;;;;;;;9.85;7.40;;;20.70;69.50;;;;;;5014953;28;20043;-87
2022/04/17 09:28:05;;;;;;;8.30;7.40;;;20.80;70.40;;;;;;5014773;28;20045;-87
2022/04/17 09:30:35;;;;;;;8.40;6.57;;;20.20;71.00;;;;;;4998450;28;20050;-85
2022/04/17 09:33:11;;;;;;;7.40;5.95;;;20.30;72.90;;;;;;5018339;28;20057;-86
2022/04/17 09:35:36;;;;;;;8.05;6.90;;;21.20;68.20;;;;;;4989878;28;20103;-85
2022/04/17 09:38:06;;;;;;;8.10;6.80;;;20.20;68.90;;;;;;5014348;28;20096;-87
2022/04/17 09:40:32;;;;;;;9.00;7.28;;;21.40;68.80;;;;;;5013805;28;20045;-86
2022/04/17 09:43:14;;;;;;;10.70;7.40;;;20.80;71.30;;;;;;4982199;28;20493;-87
2022/04/17 09:45:59;;;;;;;7.57;6.80;;;20.80;69.90;;;;;;5037241;28;20068;-86
2022/04/17 09:48:28;;;;;;;7.40;6.70;;;20.70;69.70;;;;;;4986232;28;20049;-87
2022/04/17 09:50:53;;;;;;;7.53;6.82;;;20.60;69.00;;;;;;5032263;28;20049;-87
2022/04/17 09:53:33;;;;;;;8.15;6.65;;;20.90;70.50;;;;;;5013863;28;20091;-87
2022/04/17 09:56:10;;;;;;;7.78;6.20;;;20.90;69.20;;;;;;4995032;28;20537;-86
2022/04/17 09:58:45;;;;;;;6.57;5.90;;;20.70;68.00;;;;;;4979127;28;20490;-86
2022/04/17 10:01:15;;;;;;;5.90;5.30;;;21.00;69.10;;;;;;5011166;28;20060;-86
2022/04/17 10:03:41;;;;;;;6.05;5.40;;;21.00;68.40;;;;;;5011006;28;20145;-88
2022/04/17 10:06:07;;;;;;;5.97;5.38;;;20.90;66.30;;;;;;5011060;28;20144;-88
2022/04/17 10:08:33;;;;;;;6.82;5.75;;;20.70;65.90;;;;;;4978587;28;20133;-87
2022/04/17 10:11:00;;;;;;;5.20;4.70;;;20.60;66.00;;;;;;5011584;28;20050;-87
2022/04/17 10:13:25;;;;;;;9.20;5.40;;;21.00;65.20;;;;;;4995162;28;20058;-88
2022/04/17 10:15:51;;;;;;;6.15;4.65;;;21.10;63.50;;;;;;5012436;28;20092;-88
2022/04/17 10:18:17;;;;;;;4.57;4.10;;;21.80;63.90;;;;;;4994978;28;20045;-86
2022/04/17 10:20:44;;;;;;;5.10;4.60;;;21.30;62.00;;;;;;5012335;28;20096;-88
2022/04/17 10:23:10;;;;;;;5.25;4.75;;;20.80;62.00;;;;;;4979469;28;20050;-88
2022/04/17 10:25:36;;;;;;;4.50;4.10;;;21.00;62.60;;;;;;4979211;28;20046;-87
2022/04/17 10:28:02;;;;;;;5.13;4.10;;;20.60;63.70;;;;;;5015211;28;20131;-89
2022/04/17 10:30:37;;;;;;;4.75;4.25;;;20.50;63.70;;;;;;4999622;28;20077;-84
2022/04/17 10:33:09;;;;;;;4.85;4.03;;;20.60;63.60;;;;;;5018702;28;20341;-85
2022/04/17 10:36:09;;;;;;;6.05;4.80;;;20.60;63.50;;;;;;5033923;28;20073;-83
2022/04/17 10:38:45;;;;;;;5.30;4.05;;;20.40;62.00;;;;;;5032002;28;20050;-84
2022/04/17 10:41:12;;;;;;;4.70;4.20;;;20.40;61.80;;;;;;5031519;28;20056;-86
2022/04/17 10:43:47;;;;;;;4.47;3.90;;;20.20;62.10;;;;;;4994240;28;20054;-88
2022/04/17 10:46:20;;;;;;;6.72;4.50;;;20.20;61.80;;;;;;5018439;28;20046;-88
2022/04/17 10:48:55;;;;;;;6.20;4.43;;;20.30;62.00;;;;;;5015148;28;20065;-87
2022/04/17 10:51:22;;;;;;;11.10;5.20;;;19.30;63.00;;;;;;5013823;28;20480;-88
2022/04/17 10:53:52;;;;;;;6.03;4.55;;;19.70;64.40;;;;;;4996592;28;20508;-86
2022/04/17 10:56:18;;;;;;;4.60;4.13;;;19.80;63.20;;;;;;5011724;28;20141;-88
2022/04/17 10:58:51;;;;;;;5.80;4.63;;;19.70;62.40;;;;;;5013262;28;20050;-87
2022/04/17 11:01:16;;;;;;;21.65;14.25;;;19.80;61.20;;;;;;4996281;28;20054;-88
2022/04/17 11:03:55;;;;;;;8.80;6.55;;;19.80;64.20;;;;;;4996033;28;20061;-88
2022/04/17 11:06:33;;;;;;;9.15;7.07;;;20.00;64.10;;;;;;5016040;28;20049;-88
2022/04/17 11:09:10;;;;;;;5.25;4.65;;;19.80;64.20;;;;;;5011686;28;20109;-84
2022/04/17 11:11:39;;;;;;;6.75;4.90;;;19.50;63.00;;;;;;5022639;28;20133;-86
2022/04/17 11:14:12;;;;;;;5.38;4.88;;;19.00;63.80;;;;;;5016171;28;20137;-86
2022/04/17 11:16:58;;;;;;;5.80;5.20;;;18.80;65.10;;;;;;5009732;28;20049;-88
2022/04/17 11:19:25;;;;;;;11.20;7.95;;;18.50;67.00;;;;;;5015446;28;20042;-88
2022/04/17 11:21:56;;;;;;;7.22;5.18;;;18.40;66.20;;;;;;4996949;28;20053;-88
2022/04/17 11:24:22;;;;;;;6.70;5.50;;;18.10;66.50;;;;;;5012849;28;20132;-87
2022/04/17 11:26:54;;;;;;;5.28;4.75;;;17.70;68.20;;;;;;5014255;28;20128;-87
2022/04/17 11:29:35;;;;;;;6.70;4.75;;;17.50;65.10;;;;;;5017466;28;20089;-87
2022/04/17 11:32:01;;;;;;;7.22;5.30;;;17.70;65.40;;;;;;4983460;28;20053;-88
2022/04/17 11:34:54;;;;;;;5.90;5.32;;;17.80;68.00;;;;;;5000179;28;20129;-86
2022/04/17 11:37:27;;;;;;;7.10;5.20;;;17.80;66.70;;;;;;5024936;28;20488;-88
2022/04/17 11:39:54;;;;;;;6.40;5.40;;;17.80;65.00;;;;;;5023769;28;20490;-87
2022/04/17 11:42:19;;;;;;;6.68;5.82;;;17.90;65.00;;;;;;5028018;28;20061;-89
2022/04/17 11:44:46;;;;;;;7.43;5.63;;;17.40;65.60;;;;;;4972290;28;20057;-89
2022/04/17 11:47:15;;;;;;;6.60;5.75;;;17.50;66.50;;;;;;5020106;28;20049;-87
2022/04/17 11:49:45;;;;;;;6.88;5.43;;;17.70;65.20;;;;;;4998637;28;20057;-89
2022/04/17 11:52:15;;;;;;;6.60;5.68;;;17.60;65.80;;;;;;4985761;28;20045;-88
2022/04/17 11:54:41;;;;;;;7.43;5.72;;;17.50;67.10;;;;;;5036346;28;20021;-82
2022/04/17 11:57:07;;;;;;;7.68;5.97;;;17.60;66.60;;;;;;4994212;28;20052;-87
2022/04/17 11:59:54;;;;;;;6.90;5.50;;;17.80;66.70;;;;;;5003295;28;20403;-90
2022/04/17 12:02:23;;;;;;;7.82;5.63;;;17.80;66.40;;;;;;5020206;28;20085;-88
2022/04/17 12:04:53;;;;;;;8.05;5.88;;;17.70;64.80;;;;;;5019361;28;20287;-90
2022/04/17 12:07:20;;;;;;;7.78;5.40;;;17.60;66.50;;;;;;5018886;28;20045;-89
2022/04/17 12:09:47;;;;;;;7.32;5.57;;;17.60;66.20;;;;;;5017091;28;20062;-90
2022/04/17 12:12:13;;;;;;;8.02;5.82;;;17.60;65.60;;;;;;5002148;28;20049;-89
2022/04/17 12:14:39;;;;;;;6.60;4.85;;;17.60;65.50;;;;;;5035123;28;20106;-91
2022/04/17 12:17:05;;;;;;;6.15;5.35;;;17.70;65.60;;;;;;5017550;28;20124;-88
2022/04/17 12:19:30;;;;;;;7.57;5.38;;;17.60;64.80;;;;;;5016929;28;20045;-82
2022/04/17 12:21:56;;;;;;;6.78;5.68;;;17.50;65.50;;;;;;5002058;28;20050;-90
2022/04/17 12:24:22;;;;;;;7.70;5.10;;;17.60;64.80;;;;;;5034736;28;20063;-88
2022/04/17 12:26:48;;;;;;;5.93;5.20;;;17.70;65.70;;;;;;5018916;28;20091;-88
2022/04/17 12:29:14;;;;;;;7.13;5.03;;;17.70;64.30;;;;;;5001813;28;20045;-89
2022/04/17 12:31:40;;;;;;;6.68;4.68;;;17.70;65.70;;;;;;4984625;28;20112;-88
2022/04/17 12:34:08;;;;;;;5.63;4.88;;;17.90;64.10;;;;;;5019621;28;20432;-88
2022/04/17 12:36:34;;;;;;;8.38;5.32;;;18.10;65.80;;;;;;5017572;28;20055;-87
2022/04/17 12:39:02;;;;;;;7.88;4.93;;;18.10;65.70;;;;;;4984091;28;20144;-89
2022/04/17 12:41:30;;;;;;;6.80;4.63;;;18.10;63.60;;;;;;5035675;28;20053;-89
2022/04/17 12:43:56;;;;;;;5.20;4.70;;;18.30;63.90;;;;;;5017300;28;20160;-89
2022/04/17 12:46:28;;;;;;;5.68;4.65;;;18.30;63.70;;;;;;4984582;28;20079;-88
2022/04/17 12:49:10;;;;;;;7.80;5.88;;;18.50;65.40;;;;;;5034269;28;20132;-89
2022/04/17 12:51:37;;;;;;;9.35;5.20;;;18.00;61.10;;;;;;5000438;28;20053;-88
2022/04/17 12:54:03;;;;;;;6.57;5.07;;;18.10;64.50;;;;;;5022936;28;20064;-89
2022/04/17 12:56:29;;;;;;;5.43;4.90;;;18.30;64.90;;;;;;5018032;28;20069;-87